Terminal Aerodrome Forecast
Issued by NWS Jackson, KY

Current Version | Previous Version | Text Only | Print | Product List | Glossary On
Versions: 1 2 3 4 5 6 7 8 9 10 11 12 13 14 15 16 17 18 19 20 21
000
FTUS43 KJKL 161300 AAA
TAFLOZ
TAF AMD
KLOZ 161323Z 1613/1712 VRB03KT 6SM BR VCSH OVC010
     FM161800 VRB03KT P6SM BKN020
     FM162200 00000KT P6SM SCT035
     FM170600 00000KT 2SM BR SCT001=

USA.gov is the U.S. government's official web portal to all federal, state and local government web resources and services.